createdAt,value
2022-11-21T00:00:00.510Z,63.20
2022-11-21T00:01:00.461Z,61.30
2022-11-21T00:02:00.552Z,61.50
2022-11-21T00:03:00.463Z,61.30
2022-11-21T00:04:00.457Z,60.10
2022-11-21T00:05:00.436Z,57.90
2022-11-21T00:06:00.462Z,60.70
2022-11-21T00:07:00.493Z,61.40
2022-11-21T00:08:00.439Z,58.60
2022-11-21T00:09:00.388Z,58.10
2022-11-21T00:10:00.392Z,59.90
2022-11-21T00:11:00.359Z,60.00
2022-11-21T00:12:00.394Z,59.30
2022-11-21T00:13:00.383Z,58.90
2022-11-21T00:14:00.372Z,57.40
2022-11-21T00:15:00.327Z,57.60
2022-11-21T00:16:00.358Z,57.60
2022-11-21T00:17:00.300Z,58.90
2022-11-21T00:18:00.317Z,58.00
2022-11-21T00:19:00.309Z,58.10
2022-11-21T00:20:00.289Z,58.60
2022-11-21T00:21:00.279Z,60.10
2022-11-21T00:22:00.287Z,60.30
2022-11-21T00:23:00.247Z,59.40
2022-11-21T00:24:00.291Z,59.10
2022-11-21T00:25:00.217Z,58.90
2022-11-21T00:26:00.229Z,58.70
2022-11-21T00:27:00.213Z,59.20
2022-11-21T00:28:00.223Z,58.80
2022-11-21T00:29:00.190Z,59.70
2022-11-21T00:30:00.205Z,61.10
2022-11-21T00:31:00.207Z,61.30
2022-11-21T00:32:00.183Z,59.10
2022-11-21T00:33:00.143Z,59.40
2022-11-21T00:34:00.162Z,60.90
2022-11-21T00:35:00.160Z,57.60
2022-11-21T00:36:00.143Z,58.00
2022-11-21T00:37:00.101Z,60.30
2022-11-21T00:38:00.150Z,60.20
2022-11-21T00:39:00.086Z,63.70
2022-11-21T00:40:00.131Z,62.40
2022-11-21T00:41:00.086Z,61.80
2022-11-21T00:42:00.107Z,62.10
2022-11-21T00:43:00.038Z,64.80
2022-11-21T00:44:00.068Z,61.50
2022-11-21T00:45:00.044Z,65.70
2022-11-21T00:46:00.062Z,67.20
2022-11-21T00:46:59.995Z,57.80
2022-11-21T00:48:00.032Z,59.20
2022-11-21T00:49:00.005Z,60.50
2022-11-21T00:49:59.968Z,58.70
2022-11-21T00:50:59.984Z,57.90
2022-11-21T00:51:59.988Z,61.20
2022-11-21T00:52:59.938Z,59.10
2022-11-21T00:53:59.992Z,61.30
2022-11-21T00:55:00.015Z,59.30
2022-11-21T00:55:59.930Z,60.90
2022-11-21T00:56:59.920Z,59.80
2022-11-21T00:57:59.905Z,63.50
2022-11-21T00:58:59.877Z,58.80
2022-11-21T00:59:59.885Z,61.00
2022-11-21T01:00:59.937Z,59.30
2022-11-21T01:01:59.869Z,58.60
2022-11-21T01:02:59.844Z,60.00
2022-11-21T01:03:59.846Z,60.50
2022-11-21T01:04:59.824Z,60.30
2022-11-21T01:05:59.831Z,60.70
2022-11-21T01:06:59.858Z,61.80
2022-11-21T01:07:59.855Z,62.00
2022-11-21T01:08:59.834Z,59.30
2022-11-21T01:09:59.818Z,62.00
2022-11-21T01:10:59.754Z,61.60
2022-11-21T01:11:59.760Z,62.70
2022-11-21T01:12:59.759Z,61.90
2022-11-21T01:13:59.757Z,63.90
2022-11-21T01:14:59.709Z,68.80
2022-11-21T01:15:59.834Z,65.90
2022-11-21T01:16:59.687Z,64.10
2022-11-21T01:17:59.756Z,66.70
2022-11-21T01:18:59.696Z,65.80
2022-11-21T01:19:59.682Z,66.90
2022-11-21T01:20:59.648Z,65.20
2022-11-21T01:21:59.659Z,65.20
2022-11-21T01:22:59.660Z,63.30
2022-11-21T01:23:59.651Z,66.70
2022-11-21T01:24:59.619Z,66.20
2022-11-21T01:25:59.596Z,65.40
2022-11-21T01:26:59.584Z,62.30
2022-11-21T01:27:59.597Z,61.80
2022-11-21T01:28:59.565Z,60.10
2022-11-21T01:29:59.605Z,60.60
2022-11-21T01:30:59.565Z,60.50
2022-11-21T01:31:59.555Z,60.20
2022-11-21T01:32:59.533Z,63.50
2022-11-21T01:33:59.543Z,62.70
2022-11-21T01:34:59.507Z,62.20
2022-11-21T01:35:59.532Z,65.00
2022-11-21T01:36:59.506Z,68.70
2022-11-21T01:37:59.497Z,65.10
2022-11-21T01:38:59.466Z,64.80
2022-11-21T01:39:59.481Z,61.00
2022-11-21T01:40:59.460Z,61.90
2022-11-21T01:41:59.457Z,62.10
2022-11-21T01:42:59.423Z,62.10
2022-11-21T01:43:59.434Z,62.20
2022-11-21T01:44:59.418Z,62.80
2022-11-21T01:45:59.422Z,63.90
2022-11-21T01:46:59.394Z,64.70
2022-11-21T01:47:59.399Z,62.00
2022-11-21T01:48:59.363Z,64.00
2022-11-21T01:49:59.382Z,63.40
2022-11-21T01:50:59.343Z,63.90
2022-11-21T01:51:59.366Z,65.20
2022-11-21T01:52:59.321Z,64.60
2022-11-21T01:53:59.336Z,65.90
2022-11-21T01:54:59.315Z,66.10
2022-11-21T01:55:59.311Z,66.00
2022-11-21T01:56:59.294Z,65.90
2022-11-21T01:57:59.312Z,66.40
2022-11-21T01:58:59.264Z,65.00
2022-11-21T01:59:59.268Z,66.90
2022-11-21T02:00:59.293Z,63.30
2022-11-21T02:01:59.259Z,64.70
2022-11-21T02:02:59.239Z,65.60
2022-11-21T02:03:59.236Z,65.20
2022-11-21T02:04:59.199Z,65.00
2022-11-21T02:05:59.342Z,64.90
2022-11-21T02:06:59.280Z,64.60
2022-11-21T02:07:59.207Z,64.20
2022-11-21T02:08:59.178Z,64.10
2022-11-21T02:09:59.174Z,64.60
2022-11-21T02:10:59.132Z,66.20
2022-11-21T02:11:59.149Z,65.90
2022-11-21T02:12:59.115Z,64.20
2022-11-21T02:13:59.134Z,72.00
2022-11-21T02:14:59.117Z,68.50
2022-11-21T02:15:59.111Z,70.70
2022-11-21T02:16:59.076Z,71.10
2022-11-21T02:17:59.086Z,71.60
2022-11-21T02:18:59.058Z,72.20
2022-11-21T02:19:59.075Z,66.20
2022-11-21T02:20:59.056Z,69.60
2022-11-21T02:21:59.049Z,66.40
2022-11-21T02:22:59.031Z,68.00
2022-11-21T02:24:00.530Z,70.20
2022-11-21T02:24:58.996Z,68.30
2022-11-21T02:25:59.007Z,72.80
2022-11-21T02:26:59.016Z,75.00
2022-11-21T02:27:58.992Z,70.40
2022-11-21T02:28:58.948Z,66.50
2022-11-21T02:29:58.961Z,70.00
2022-11-21T02:30:58.933Z,67.00
2022-11-21T02:31:58.945Z,68.20
2022-11-21T02:32:58.955Z,64.50
2022-11-21T02:33:58.933Z,64.10
2022-11-21T02:34:58.892Z,65.90
2022-11-21T02:35:58.912Z,66.30
2022-11-21T02:36:58.878Z,66.10
2022-11-21T02:37:58.887Z,68.60
2022-11-21T02:38:58.883Z,68.10
2022-11-21T02:39:58.871Z,68.70
2022-11-21T02:40:58.848Z,67.70
2022-11-21T02:41:58.838Z,66.90
2022-11-21T02:42:58.834Z,69.20
2022-11-21T02:43:58.824Z,67.90
2022-11-21T02:44:58.837Z,68.90
2022-11-21T02:45:58.781Z,67.10
2022-11-21T02:46:58.796Z,69.00
2022-11-21T02:48:03.684Z,70.30
2022-11-21T02:48:58.781Z,68.60
2022-11-21T02:49:58.743Z,69.50
2022-11-21T02:50:58.772Z,69.60
2022-11-21T02:51:58.718Z,71.90
2022-11-21T02:52:58.730Z,68.20
2022-11-21T02:53:58.703Z,68.20
2022-11-21T02:54:58.728Z,66.70
2022-11-21T02:55:58.692Z,68.90
2022-11-21T02:56:58.731Z,67.60
2022-11-21T02:58:01.769Z,70.70
2022-11-21T02:58:58.678Z,68.40
2022-11-21T02:59:58.640Z,70.40
2022-11-21T03:00:58.730Z,69.30
2022-11-21T03:01:58.617Z,67.70
2022-11-21T03:02:58.677Z,67.90
2022-11-21T03:03:58.606Z,69.00
2022-11-21T03:04:58.605Z,68.20
2022-11-21T03:05:58.589Z,69.40
2022-11-21T03:06:58.760Z,68.20
2022-11-21T03:07:58.627Z,67.20
2022-11-21T03:08:58.594Z,67.60
2022-11-21T03:09:58.530Z,65.70
2022-11-21T03:10:58.546Z,67.50
2022-11-21T03:11:58.513Z,68.90
2022-11-21T03:12:58.527Z,68.30
2022-11-21T03:13:58.495Z,69.60
2022-11-21T03:14:58.543Z,70.70
2022-11-21T03:15:58.474Z,66.80
2022-11-21T03:16:58.489Z,65.60
2022-11-21T03:17:58.448Z,66.70
2022-11-21T03:18:58.466Z,69.00
2022-11-21T03:19:58.442Z,69.60
2022-11-21T03:20:58.469Z,68.30
2022-11-21T03:21:58.408Z,67.30
2022-11-21T03:22:58.424Z,65.40
2022-11-21T03:23:58.437Z,68.00
2022-11-21T03:24:58.407Z,66.10
2022-11-21T03:25:58.378Z,69.50
2022-11-21T03:26:58.403Z,68.40
2022-11-21T03:27:58.353Z,69.10
2022-11-21T03:28:58.360Z,70.20
2022-11-21T03:29:58.328Z,70.80
2022-11-21T03:31:04.839Z,70.00
2022-11-21T03:31:58.295Z,74.60
2022-11-21T03:32:58.343Z,73.50
2022-11-21T03:33:58.280Z,75.40
2022-11-21T03:34:58.288Z,74.70
2022-11-21T03:35:58.257Z,72.80
2022-11-21T03:36:58.286Z,73.10
2022-11-21T03:37:58.233Z,71.20
2022-11-21T03:38:58.273Z,70.70
2022-11-21T03:39:58.221Z,69.60
2022-11-21T03:40:58.235Z,71.50
2022-11-21T03:41:58.198Z,71.70
2022-11-21T03:42:58.210Z,76.30
2022-11-21T03:43:58.170Z,73.20
2022-11-21T03:44:58.198Z,74.50
2022-11-21T03:45:58.157Z,72.60
2022-11-21T03:46:58.172Z,76.30
2022-11-21T03:47:58.141Z,74.30
2022-11-21T03:48:58.146Z,71.40
2022-11-21T03:49:58.122Z,71.10
2022-11-21T03:50:58.137Z,73.50
2022-11-21T03:51:58.112Z,70.30
2022-11-21T03:52:58.122Z,68.20
2022-11-21T03:53:58.077Z,69.40
2022-11-21T03:54:58.083Z,70.60
2022-11-21T03:55:58.052Z,67.30
2022-11-21T03:56:58.100Z,69.30
2022-11-21T03:57:58.035Z,67.90
2022-11-21T03:58:58.045Z,70.30
2022-11-21T03:59:58.009Z,69.60
2022-11-21T04:00:58.067Z,69.60
2022-11-21T04:01:58.015Z,71.70
2022-11-21T04:02:58.033Z,71.40
2022-11-21T04:03:57.970Z,70.50
2022-11-21T04:04:57.984Z,71.80
2022-11-21T04:05:57.948Z,71.00
2022-11-21T04:06:57.968Z,73.80
2022-11-21T04:07:57.923Z,73.90
2022-11-21T04:08:57.970Z,74.60
2022-11-21T04:09:57.909Z,74.80
2022-11-21T04:10:57.916Z,73.50
2022-11-21T04:11:57.900Z,71.90
2022-11-21T04:12:57.901Z,70.00
2022-11-21T04:13:57.871Z,69.50
2022-11-21T04:14:57.899Z,71.50
2022-11-21T04:15:57.848Z,70.40
2022-11-21T04:16:57.865Z,72.30
2022-11-21T04:17:57.837Z,71.60
2022-11-21T04:18:57.836Z,74.20
2022-11-21T04:19:57.865Z,76.70
2022-11-21T04:20:57.841Z,75.20
2022-11-21T04:21:57.811Z,77.40
2022-11-21T04:22:57.808Z,73.20
2022-11-21T04:23:57.763Z,73.80
2022-11-21T04:24:57.792Z,74.00
2022-11-21T04:25:57.755Z,76.70
2022-11-21T04:26:57.767Z,76.20
2022-11-21T04:27:57.721Z,71.20
2022-11-21T04:28:57.738Z,71.10
2022-11-21T04:29:57.705Z,73.90
2022-11-21T04:31:00.645Z,75.10
2022-11-21T04:31:57.679Z,75.50
2022-11-21T04:32:57.719Z,72.60
2022-11-21T04:33:57.661Z,73.30
2022-11-21T04:34:57.680Z,74.70
2022-11-21T04:35:57.639Z,75.40
2022-11-21T04:36:57.693Z,75.20
2022-11-21T04:37:57.633Z,74.80
2022-11-21T04:38:57.651Z,72.00
2022-11-21T04:39:57.603Z,72.40
2022-11-21T04:40:57.610Z,73.50
2022-11-21T04:41:57.576Z,76.10
2022-11-21T04:42:57.605Z,74.00
2022-11-21T04:43:57.561Z,68.20
2022-11-21T04:44:57.607Z,71.20
2022-11-21T04:45:57.542Z,72.20
2022-11-21T04:47:02.328Z,68.60
2022-11-21T04:47:57.533Z,68.20
2022-11-21T04:48:57.533Z,69.70
2022-11-21T04:49:57.499Z,72.40
2022-11-21T04:50:57.530Z,70.10
2022-11-21T04:51:57.474Z,71.00
2022-11-21T04:52:57.496Z,68.60
2022-11-21T04:53:57.455Z,70.90
2022-11-21T04:54:57.478Z,70.90
2022-11-21T04:55:57.457Z,70.30
2022-11-21T04:56:57.471Z,70.50
2022-11-21T04:57:57.417Z,73.20
2022-11-21T04:58:57.436Z,70.30
2022-11-21T04:59:57.400Z,71.30
2022-11-21T05:00:57.440Z,74.00
2022-11-21T05:01:57.381Z,72.80
2022-11-21T05:02:57.424Z,71.10
2022-11-21T05:03:57.367Z,72.90
2022-11-21T05:04:57.364Z,73.10
2022-11-21T05:05:57.332Z,71.50
2022-11-21T05:06:57.343Z,72.00
2022-11-21T05:07:57.319Z,71.80
2022-11-21T05:08:57.346Z,71.50
2022-11-21T05:09:57.303Z,70.90
2022-11-21T05:10:57.320Z,72.50
2022-11-21T05:11:57.273Z,70.30
2022-11-21T05:12:57.286Z,73.20
2022-11-21T05:13:57.251Z,69.70
2022-11-21T05:14:57.289Z,69.50
2022-11-21T05:15:57.243Z,73.90
2022-11-21T05:16:57.241Z,70.30
2022-11-21T05:17:57.232Z,73.00
2022-11-21T05:18:57.244Z,72.10
2022-11-21T05:19:57.189Z,71.90
2022-11-21T05:20:57.239Z,72.10
2022-11-21T05:21:57.168Z,72.50
2022-11-21T05:22:57.185Z,69.20
2022-11-21T05:23:57.149Z,70.10
2022-11-21T05:24:57.168Z,67.90
2022-11-21T05:25:57.132Z,71.20
2022-11-21T05:26:57.173Z,70.40
2022-11-21T05:27:57.114Z,71.20
2022-11-21T05:28:57.121Z,70.10
2022-11-21T05:29:57.109Z,68.00
2022-11-21T05:30:57.100Z,69.50
2022-11-21T05:31:57.067Z,67.20
2022-11-21T05:32:57.117Z,67.00
2022-11-21T05:33:57.048Z,69.80
2022-11-21T05:34:57.063Z,73.30
2022-11-21T05:35:57.033Z,74.40
2022-11-21T05:36:57.074Z,73.30
2022-11-21T05:37:57.024Z,73.10
2022-11-21T05:38:57.042Z,71.80
2022-11-21T05:39:56.986Z,72.20
2022-11-21T05:40:57.001Z,72.60
2022-11-21T05:42:02.543Z,69.70
2022-11-21T05:42:57.003Z,71.30
2022-11-21T05:43:56.944Z,67.60
2022-11-21T05:44:56.979Z,66.20
2022-11-21T05:45:56.928Z,66.00
2022-11-21T05:46:56.938Z,64.70
2022-11-21T05:47:56.914Z,63.70
2022-11-21T05:48:56.916Z,60.30
2022-11-21T05:49:56.909Z,61.70
2022-11-21T05:50:56.922Z,63.70
2022-11-21T05:51:56.866Z,65.40
2022-11-21T05:52:56.879Z,64.80
2022-11-21T05:53:56.844Z,66.30
2022-11-21T05:54:56.859Z,68.30
2022-11-21T05:55:56.821Z,69.00
2022-11-21T05:56:56.855Z,67.90
2022-11-21T05:57:56.810Z,66.10
2022-11-21T05:58:56.828Z,64.30
2022-11-21T05:59:56.783Z,65.80
2022-11-21T06:00:59.735Z,65.00
2022-11-21T06:01:56.762Z,64.50
2022-11-21T06:02:56.940Z,68.40
2022-11-21T06:03:56.738Z,66.30
2022-11-21T06:04:56.782Z,65.30
2022-11-21T06:05:56.724Z,65.40
2022-11-21T06:06:56.736Z,64.90
2022-11-21T06:07:56.702Z,65.50
2022-11-21T06:08:56.745Z,63.90
2022-11-21T06:09:56.677Z,64.50
2022-11-21T06:10:56.705Z,63.30
2022-11-21T06:11:56.701Z,63.50
2022-11-21T06:12:56.673Z,62.50
2022-11-21T06:13:56.642Z,62.90
2022-11-21T06:14:56.662Z,64.10
2022-11-21T06:15:56.625Z,62.30
2022-11-21T06:16:56.628Z,63.00
2022-11-21T06:17:56.601Z,61.50
2022-11-21T06:18:58.692Z,62.00
2022-11-21T06:19:56.590Z,63.40
2022-11-21T06:20:56.604Z,61.90
2022-11-21T06:21:56.560Z,64.00
2022-11-21T06:22:56.567Z,62.20
2022-11-21T06:23:56.549Z,64.80
2022-11-21T06:24:56.562Z,63.60
2022-11-21T06:25:56.519Z,65.40
2022-11-21T06:26:56.545Z,64.30
2022-11-21T06:27:56.493Z,68.30
2022-11-21T06:28:56.510Z,65.70
2022-11-21T06:29:56.489Z,64.60
2022-11-21T06:30:56.487Z,64.40
2022-11-21T06:31:56.457Z,64.90
2022-11-21T06:32:56.525Z,65.30
2022-11-21T06:33:56.445Z,64.50
2022-11-21T06:34:56.456Z,62.90
2022-11-21T06:35:56.411Z,65.70
2022-11-21T06:36:56.432Z,65.30
2022-11-21T06:37:56.396Z,64.60
2022-11-21T06:38:56.435Z,66.40
2022-11-21T06:39:56.374Z,63.50
2022-11-21T06:40:56.382Z,62.70
2022-11-21T06:41:56.360Z,66.10
2022-11-21T06:42:56.381Z,68.00
2022-11-21T06:43:56.328Z,68.80
2022-11-21T06:44:56.377Z,69.70
2022-11-21T06:45:56.315Z,71.70
2022-11-21T06:46:56.326Z,67.80
2022-11-21T06:47:56.292Z,69.10
2022-11-21T06:48:56.303Z,68.20
2022-11-21T06:49:56.272Z,68.90
2022-11-21T06:50:56.308Z,70.30
2022-11-21T06:51:56.255Z,66.60
2022-11-21T06:52:56.262Z,70.50
2022-11-21T06:53:56.247Z,74.30
2022-11-21T06:54:56.242Z,74.50
2022-11-21T06:55:56.279Z,73.20
2022-11-21T06:56:56.231Z,70.80
2022-11-21T06:57:56.213Z,72.50
2022-11-21T06:58:56.176Z,69.70
2022-11-21T06:59:56.189Z,71.90
2022-11-21T07:00:56.219Z,69.60
2022-11-21T07:01:56.177Z,68.50
2022-11-21T07:03:01.587Z,69.60
2022-11-21T07:03:56.162Z,67.60
2022-11-21T07:04:56.119Z,66.70
2022-11-21T07:05:56.151Z,69.30
2022-11-21T07:06:56.094Z,67.60
2022-11-21T07:07:56.111Z,70.40
2022-11-21T07:09:25.535Z,69.50
2022-11-21T07:09:56.093Z,67.40
2022-11-21T07:11:23.081Z,67.60
2022-11-21T07:11:56.071Z,66.50
2022-11-21T07:12:56.037Z,66.40
2022-11-21T07:13:56.066Z,66.90
2022-11-21T07:14:56.053Z,66.50
2022-11-21T07:15:56.026Z,65.60
2022-11-21T07:16:55.991Z,66.90
2022-11-21T07:17:56.004Z,69.30
2022-11-21T07:18:55.985Z,66.70
2022-11-21T07:19:55.994Z,66.80
2022-11-21T07:20:55.981Z,66.10
2022-11-21T07:21:55.969Z,68.70
2022-11-21T07:22:55.934Z,67.60
2022-11-21T07:23:55.954Z,67.00
2022-11-21T07:24:55.953Z,68.00
2022-11-21T07:25:55.927Z,68.50
2022-11-21T07:26:55.922Z,66.70
2022-11-21T07:27:55.917Z,64.00
2022-11-21T07:28:55.875Z,65.90
2022-11-21T07:29:55.894Z,61.80
2022-11-21T07:30:55.847Z,63.30
2022-11-21T07:31:55.862Z,60.60
2022-11-21T07:32:55.848Z,63.00
2022-11-21T07:33:55.845Z,64.80
2022-11-21T07:34:55.809Z,64.10
2022-11-21T07:35:55.819Z,64.20
2022-11-21T07:36:55.796Z,62.20
2022-11-21T07:37:55.813Z,64.70
2022-11-21T07:38:55.806Z,62.50
2022-11-21T07:39:55.784Z,65.10
2022-11-21T07:40:55.757Z,64.10
2022-11-21T07:41:55.770Z,63.30
2022-11-21T07:42:55.731Z,64.70
2022-11-21T07:43:55.738Z,63.90
2022-11-21T07:44:55.765Z,64.10
2022-11-21T07:45:55.725Z,67.50
2022-11-21T07:46:55.707Z,62.00
2022-11-21T07:47:55.701Z,63.80
2022-11-21T07:48:59.360Z,63.70
2022-11-21T07:49:55.698Z,66.60
2022-11-21T07:50:55.669Z,66.40
2022-11-21T07:51:55.660Z,65.70
2022-11-21T07:52:55.638Z,63.10
2022-11-21T07:53:55.638Z,65.20
2022-11-21T07:54:55.607Z,64.00
2022-11-21T07:55:55.621Z,68.90
2022-11-21T07:56:55.606Z,67.10
2022-11-21T07:57:55.599Z,66.60
2022-11-21T07:58:55.565Z,65.30
2022-11-21T07:59:55.575Z,65.50
2022-11-21T08:00:55.549Z,65.60
2022-11-21T08:01:55.654Z,63.20
2022-11-21T08:02:55.535Z,65.00
2022-11-21T08:03:55.550Z,65.30
2022-11-21T08:04:55.499Z,65.50
2022-11-21T08:05:55.525Z,65.20
2022-11-21T08:06:55.494Z,67.50
2022-11-21T08:07:55.498Z,66.30
2022-11-21T08:08:55.488Z,68.70
2022-11-21T08:09:55.474Z,66.80
2022-11-21T08:10:55.449Z,67.10
2022-11-21T08:11:55.459Z,66.40
2022-11-21T08:12:55.424Z,67.50
2022-11-21T08:13:55.448Z,74.00
2022-11-21T08:14:55.410Z,76.10
2022-11-21T08:15:55.416Z,72.80
2022-11-21T08:16:55.373Z,66.30
2022-11-21T08:17:55.400Z,69.60
2022-11-21T08:18:55.376Z,67.90
2022-11-21T08:19:55.381Z,68.20
2022-11-21T08:20:55.402Z,73.00
2022-11-21T08:21:55.370Z,70.70
2022-11-21T08:22:55.314Z,68.30
2022-11-21T08:23:55.327Z,68.80
2022-11-21T08:24:55.302Z,68.30
2022-11-21T08:25:55.314Z,67.90
2022-11-21T08:26:55.300Z,68.00
2022-11-21T08:27:55.292Z,68.60
2022-11-21T08:28:59.750Z,71.20
2022-11-21T08:29:55.286Z,69.10
2022-11-21T08:30:55.226Z,67.70
2022-11-21T08:31:55.251Z,68.60
2022-11-21T08:32:55.237Z,66.70
2022-11-21T08:33:55.241Z,66.30
2022-11-21T08:34:55.206Z,65.10
2022-11-21T08:35:55.216Z,66.60
2022-11-21T08:36:55.173Z,67.50
2022-11-21T08:37:55.191Z,68.10
2022-11-21T08:38:55.179Z,67.80
2022-11-21T08:39:55.169Z,66.40
2022-11-21T08:40:55.139Z,66.10
2022-11-21T08:41:55.149Z,66.10
2022-11-21T08:42:55.112Z,64.20
2022-11-21T08:43:55.125Z,63.30
2022-11-21T08:44:55.120Z,67.20
2022-11-21T08:45:55.115Z,68.80
2022-11-21T08:46:55.067Z,67.40
2022-11-21T08:47:55.079Z,71.50
2022-11-21T08:48:55.052Z,68.20
2022-11-21T08:49:55.062Z,67.40
2022-11-21T08:50:55.066Z,67.10
2022-11-21T08:51:55.044Z,68.30
2022-11-21T08:52:55.007Z,68.10
2022-11-21T08:53:55.025Z,67.20
2022-11-21T08:54:54.988Z,70.70
2022-11-21T08:55:54.996Z,70.00
2022-11-21T08:56:55.003Z,71.30
2022-11-21T08:57:54.983Z,72.30
2022-11-21T08:58:54.944Z,67.80
2022-11-21T08:59:54.962Z,66.40
2022-11-21T09:00:54.922Z,65.50
2022-11-21T09:01:54.969Z,66.20
2022-11-21T09:02:54.914Z,72.70
2022-11-21T09:03:54.931Z,77.20
2022-11-21T09:04:54.888Z,83.80
2022-11-21T09:05:54.899Z,80.20
2022-11-21T09:06:54.871Z,77.30
2022-11-21T09:07:54.875Z,78.80
2022-11-21T09:08:54.872Z,80.60
2022-11-21T09:09:54.855Z,79.90
2022-11-21T09:10:54.828Z,76.20
2022-11-21T09:11:54.856Z,78.10
2022-11-21T09:12:54.815Z,79.20
2022-11-21T09:13:55.704Z,65.40
2022-11-21T09:14:54.803Z,67.20
2022-11-21T09:15:54.798Z,67.90
2022-11-21T09:16:59.229Z,69.90
2022-11-21T09:17:54.782Z,69.50
2022-11-21T09:18:54.741Z,66.20
2022-11-21T09:19:54.784Z,64.80
2022-11-21T09:20:54.741Z,67.20
2022-11-21T09:21:54.746Z,65.90
2022-11-21T09:22:54.695Z,64.50
2022-11-21T09:23:54.714Z,65.10
2022-11-21T09:24:54.693Z,65.10
2022-11-21T09:25:54.693Z,63.10
2022-11-21T09:26:54.691Z,63.10
2022-11-21T09:27:54.676Z,64.10
2022-11-21T09:28:54.631Z,65.90
2022-11-21T09:29:54.645Z,66.40
2022-11-21T09:30:54.620Z,66.00
2022-11-21T09:31:54.625Z,64.90
2022-11-21T09:32:54.607Z,66.00
2022-11-21T09:33:55.202Z,67.10
2022-11-21T09:34:54.584Z,68.80
2022-11-21T09:35:54.581Z,67.90
2022-11-21T09:36:54.553Z,71.80
2022-11-21T09:37:54.563Z,70.60
2022-11-21T09:38:54.551Z,71.30
2022-11-21T09:39:54.545Z,70.50
2022-11-21T09:40:54.534Z,66.20
2022-11-21T09:41:54.526Z,67.70
2022-11-21T09:42:54.493Z,68.80
2022-11-21T09:43:55.841Z,67.60
2022-11-21T09:44:54.508Z,67.60
2022-11-21T09:45:54.487Z,66.20
2022-11-21T09:46:54.453Z,63.70
2022-11-21T09:47:54.481Z,67.70
2022-11-21T09:48:54.430Z,67.40
2022-11-21T09:49:54.447Z,67.00
2022-11-21T09:50:54.470Z,66.50
2022-11-21T09:51:54.421Z,66.60
2022-11-21T09:52:54.385Z,68.90
2022-11-21T09:53:54.397Z,69.40
2022-11-21T09:54:54.364Z,70.60
2022-11-21T09:55:54.389Z,73.60
2022-11-21T09:56:54.359Z,74.90
2022-11-21T09:57:54.364Z,76.10
2022-11-21T09:58:54.329Z,76.00
2022-11-21T09:59:54.357Z,73.30
2022-11-21T10:00:54.382Z,75.50
2022-11-21T10:01:54.329Z,77.40
2022-11-21T10:02:54.310Z,74.80
2022-11-21T10:03:54.322Z,75.50
2022-11-21T10:04:54.271Z,74.20
2022-11-21T10:05:54.275Z,74.30
2022-11-21T10:06:54.238Z,74.10
2022-11-21T10:07:54.256Z,72.80
2022-11-21T10:08:54.244Z,72.20
2022-11-21T10:09:54.235Z,72.40
2022-11-21T10:10:54.208Z,71.80
2022-11-21T10:11:54.231Z,70.40
2022-11-21T10:12:54.196Z,71.60
2022-11-21T10:13:54.186Z,68.80
2022-11-21T10:14:54.192Z,67.50
2022-11-21T10:15:54.171Z,70.40
2022-11-21T10:16:54.148Z,64.90
2022-11-21T10:17:54.155Z,67.20
2022-11-21T10:18:54.117Z,66.80
2022-11-21T10:19:54.129Z,65.40
2022-11-21T10:20:54.118Z,66.50
2022-11-21T10:21:54.106Z,64.90
2022-11-21T10:22:54.074Z,63.20
2022-11-21T10:23:54.090Z,61.90
2022-11-21T10:24:54.061Z,65.20
2022-11-21T10:25:54.067Z,64.60
2022-11-21T10:26:54.071Z,61.30
2022-11-21T10:27:54.060Z,61.80
2022-11-21T10:28:54.020Z,59.70
2022-11-21T10:29:54.038Z,60.00
2022-11-21T10:30:54.008Z,60.70
2022-11-21T10:31:54.017Z,59.20
2022-11-21T10:32:54.006Z,57.40
2022-11-21T10:33:53.996Z,58.80
2022-11-21T10:34:53.951Z,57.70
2022-11-21T10:35:53.973Z,59.50
2022-11-21T10:36:53.927Z,58.60
2022-11-21T10:37:53.947Z,56.90
2022-11-21T10:38:53.934Z,57.20
2022-11-21T10:39:53.932Z,55.50
2022-11-21T10:40:53.895Z,55.70
2022-11-21T10:41:53.913Z,58.50
2022-11-21T10:42:53.863Z,55.40
2022-11-21T10:43:53.882Z,57.40
2022-11-21T10:44:53.861Z,55.40
2022-11-21T10:45:53.880Z,56.50
2022-11-21T10:46:53.832Z,57.30
2022-11-21T10:47:53.839Z,55.90
2022-11-21T10:48:53.803Z,58.00
2022-11-21T10:49:53.814Z,54.30
2022-11-21T10:50:53.812Z,57.90
2022-11-21T10:51:53.802Z,56.80
2022-11-21T10:52:53.772Z,60.60
2022-11-21T10:53:53.781Z,59.80
2022-11-21T10:54:53.744Z,61.30
2022-11-21T10:55:53.761Z,59.70
2022-11-21T10:56:54.202Z,57.60
2022-11-21T10:57:53.732Z,57.10
2022-11-21T10:58:53.701Z,60.00
2022-11-21T10:59:53.708Z,58.70
2022-11-21T11:00:53.724Z,58.20
2022-11-21T11:01:53.700Z,64.80
2022-11-21T11:02:53.680Z,63.40
2022-11-21T11:04:20.695Z,64.80
2022-11-21T11:04:54.265Z,66.70
2022-11-21T11:05:53.662Z,68.50
2022-11-21T11:06:53.614Z,67.70
2022-11-21T11:07:53.709Z,68.30
2022-11-21T11:08:53.623Z,66.40
2022-11-21T11:09:53.721Z,63.30
2022-11-21T11:10:53.587Z,63.30
2022-11-21T11:11:53.571Z,61.20
2022-11-21T11:12:53.583Z,61.70
2022-11-21T11:13:53.544Z,60.40
2022-11-21T11:14:53.596Z,62.40
2022-11-21T11:15:53.530Z,64.30
2022-11-21T11:16:53.558Z,62.10
2022-11-21T11:17:53.512Z,60.70
2022-11-21T11:18:53.527Z,60.50
2022-11-21T11:19:53.488Z,59.90
2022-11-21T11:20:53.535Z,57.60
2022-11-21T11:21:53.460Z,56.30
2022-11-21T11:22:53.492Z,57.10
2022-11-21T11:23:53.440Z,60.40
2022-11-21T11:24:57.612Z,59.60
2022-11-21T11:25:53.429Z,58.30
2022-11-21T11:26:53.469Z,57.30
2022-11-21T11:27:53.397Z,58.70
2022-11-21T11:28:53.420Z,54.60
2022-11-21T11:29:53.396Z,57.80
2022-11-21T11:30:53.396Z,54.40
2022-11-21T11:31:53.369Z,52.80
2022-11-21T11:32:53.400Z,52.70
2022-11-21T11:33:53.345Z,52.30
2022-11-21T11:34:53.359Z,53.60
2022-11-21T11:35:53.330Z,52.40
2022-11-21T11:36:53.340Z,53.70
2022-11-21T11:37:53.294Z,55.60
2022-11-21T11:38:53.326Z,57.30
2022-11-21T11:39:53.277Z,59.60
2022-11-21T11:40:53.296Z,56.70
2022-11-21T11:41:53.259Z,57.10
2022-11-21T11:42:53.273Z,55.00
2022-11-21T11:43:53.456Z,51.50
2022-11-21T11:44:53.274Z,53.10
2022-11-21T11:45:53.214Z,56.40
2022-11-21T11:46:53.227Z,54.40
2022-11-21T11:47:54.747Z,51.60
2022-11-21T11:49:21.620Z,48.80
2022-11-21T11:49:53.178Z,55.90
2022-11-21T11:50:53.205Z,54.80
2022-11-21T11:51:53.160Z,54.70
2022-11-21T11:52:53.183Z,54.40
2022-11-21T11:53:56.169Z,56.90
2022-11-21T11:54:53.156Z,57.80
2022-11-21T11:55:53.114Z,56.40
2022-11-21T11:56:53.153Z,51.90
2022-11-21T11:57:53.098Z,51.70
2022-11-21T11:58:53.098Z,51.70
2022-11-21T11:59:53.079Z,53.80
2022-11-21T12:00:53.081Z,56.90
2022-11-21T12:01:53.123Z,53.90
2022-11-21T12:02:53.092Z,49.50
2022-11-21T12:03:57.763Z,50.50
2022-11-21T12:04:53.054Z,51.90
2022-11-21T12:05:53.006Z,54.00
2022-11-21T12:07:52.729Z,52.40
2022-11-21T12:08:53.077Z,50.50
2022-11-21T12:09:52.977Z,51.30
2022-11-21T12:10:52.977Z,51.60
2022-11-21T12:11:52.943Z,47.60
2022-11-21T12:12:52.954Z,52.00
2022-11-21T12:13:52.958Z,48.50
2022-11-21T12:14:52.935Z,47.60
2022-11-21T12:15:53.010Z,47.90
2022-11-21T12:16:52.935Z,47.10
2022-11-21T12:17:52.883Z,46.90
2022-11-21T12:18:52.898Z,45.20
2022-11-21T12:19:52.885Z,45.20
2022-11-21T12:20:52.889Z,48.20
2022-11-21T12:21:52.847Z,45.30
2022-11-21T12:22:52.863Z,47.20
2022-11-21T12:23:52.831Z,45.10
2022-11-21T12:24:52.836Z,48.30
2022-11-21T12:25:52.822Z,46.80
2022-11-21T12:26:52.826Z,47.20
2022-11-21T12:27:52.800Z,48.60
2022-11-21T12:28:52.784Z,48.20
2022-11-21T12:29:52.752Z,47.40
2022-11-21T12:30:52.768Z,44.40
2022-11-21T12:31:52.756Z,43.70
2022-11-21T12:32:52.776Z,42.00
2022-11-21T12:33:52.714Z,42.40
2022-11-21T12:34:52.730Z,43.50
2022-11-21T12:35:52.693Z,44.50
2022-11-21T12:36:52.700Z,43.90
2022-11-21T12:37:52.702Z,41.30
2022-11-21T12:38:52.737Z,44.40
2022-11-21T12:39:52.649Z,43.70
2022-11-21T12:40:52.672Z,43.20
2022-11-21T12:41:52.633Z,44.30
2022-11-21T12:42:52.647Z,44.50
2022-11-21T12:43:57.450Z,37.40
2022-11-21T12:44:52.646Z,37.50
2022-11-21T12:45:52.604Z,37.80
2022-11-21T12:46:52.600Z,38.90
2022-11-21T12:47:52.570Z,39.80
2022-11-21T12:48:52.615Z,41.20
2022-11-21T12:49:54.773Z,40.00
2022-11-21T12:50:52.556Z,39.90
2022-11-21T12:51:52.524Z,37.60
2022-11-21T12:52:52.545Z,39.60